createdAt,value
2017-07-15T00:01:13.907Z,15.80
2017-07-15T00:03:42.000Z,14.60
2017-07-15T00:06:10.088Z,14.70
2017-07-15T00:08:38.179Z,13.73
2017-07-15T00:11:06.268Z,15.60
2017-07-15T00:13:34.383Z,14.20
2017-07-15T00:16:02.460Z,17.00
2017-07-15T00:18:30.549Z,14.43
2017-07-15T00:20:58.644Z,15.37
2017-07-15T00:23:26.723Z,17.47
2017-07-15T00:25:54.817Z,15.60
2017-07-15T00:28:22.904Z,14.60
2017-07-15T00:30:50.993Z,13.80
2017-07-15T00:33:19.078Z,12.93
2017-07-15T00:35:47.180Z,14.60
2017-07-15T00:38:15.272Z,15.70
2017-07-15T00:40:43.351Z,13.50
2017-07-15T00:43:11.445Z,15.57
2017-07-15T00:45:39.523Z,18.27
2017-07-15T00:48:07.618Z,17.27
2017-07-15T00:50:35.703Z,17.70
2017-07-15T00:53:03.791Z,19.60
2017-07-15T00:55:31.877Z,17.20
2017-07-15T00:58:00.027Z,16.30
2017-07-15T01:00:28.114Z,18.90
2017-07-15T01:02:57.109Z,18.43
2017-07-15T01:05:25.199Z,20.07
2017-07-15T01:07:53.290Z,16.77
2017-07-15T01:10:21.386Z,16.17
2017-07-15T01:12:49.472Z,23.47
2017-07-15T01:15:17.571Z,23.47
2017-07-15T01:17:45.652Z,19.00
2017-07-15T01:20:13.741Z,17.43
2017-07-15T01:22:41.836Z,20.70
2017-07-15T01:25:09.916Z,19.23
2017-07-15T01:27:38.013Z,18.60
2017-07-15T01:30:06.094Z,19.97
2017-07-15T01:32:34.184Z,24.80
2017-07-15T01:35:02.351Z,22.70
2017-07-15T01:37:30.452Z,20.40
2017-07-15T01:39:58.550Z,21.77
2017-07-15T01:42:26.640Z,24.60
2017-07-15T01:44:54.725Z,18.00
2017-07-15T01:47:22.831Z,20.90
2017-07-15T01:49:50.937Z,19.60
2017-07-15T01:52:19.024Z,21.33
2017-07-15T01:54:47.117Z,21.90
2017-07-15T01:57:15.198Z,19.67
2017-07-15T01:59:43.299Z,20.40
2017-07-15T02:02:11.382Z,24.20
2017-07-15T02:04:39.476Z,18.33
2017-07-15T02:07:07.560Z,20.80
2017-07-15T02:09:35.669Z,19.03
2017-07-15T02:12:03.776Z,18.43
2017-07-15T02:14:31.884Z,18.73
2017-07-15T02:16:59.980Z,19.57
2017-07-15T02:19:28.076Z,20.23
2017-07-15T02:21:56.177Z,18.57
2017-07-15T02:24:24.372Z,20.73
2017-07-15T02:26:52.463Z,20.60
2017-07-15T02:29:20.551Z,19.50
2017-07-15T02:31:48.645Z,19.17
2017-07-15T02:34:16.736Z,17.60
2017-07-15T02:36:44.849Z,16.53
2017-07-15T02:39:12.937Z,17.57
2017-07-15T02:41:41.037Z,15.73
2017-07-15T02:44:09.134Z,16.40
2017-07-15T02:46:37.228Z,17.10
2017-07-15T02:49:05.336Z,16.43
2017-07-15T02:51:33.423Z,16.33
2017-07-15T02:54:01.630Z,16.90
2017-07-15T02:56:29.716Z,13.90
2017-07-15T02:58:57.812Z,14.10
2017-07-15T03:01:25.896Z,16.83
2017-07-15T03:03:53.997Z,15.17
2017-07-15T03:06:22.079Z,13.37
2017-07-15T03:08:50.173Z,15.07
2017-07-15T03:11:18.276Z,15.87
2017-07-15T03:13:46.364Z,13.37
2017-07-15T03:16:14.459Z,14.17
2017-07-15T03:18:42.552Z,14.07
2017-07-15T03:21:10.645Z,13.57
2017-07-15T03:23:38.740Z,12.90
2017-07-15T03:26:06.837Z,14.37
2017-07-15T03:28:34.927Z,15.17
2017-07-15T03:31:03.008Z,13.13
2017-07-15T03:33:31.120Z,15.10
2017-07-15T03:35:59.216Z,12.70
2017-07-15T03:38:27.312Z,11.93
2017-07-15T03:40:55.400Z,13.67
2017-07-15T03:43:23.500Z,12.60
2017-07-15T03:45:51.587Z,14.60
2017-07-15T03:48:19.700Z,14.00
2017-07-15T03:50:47.784Z,12.60
2017-07-15T03:53:15.942Z,12.77
2017-07-15T03:55:44.032Z,15.10
2017-07-15T03:58:12.132Z,14.27
2017-07-15T04:00:40.216Z,13.77
2017-07-15T04:03:08.304Z,16.30
2017-07-15T04:05:36.396Z,14.23
2017-07-15T04:08:04.484Z,14.90
2017-07-15T04:10:32.580Z,12.70
2017-07-15T04:13:00.663Z,15.60
2017-07-15T04:15:28.763Z,14.23
2017-07-15T04:17:56.856Z,15.53
2017-07-15T04:20:24.972Z,15.57
2017-07-15T04:22:53.060Z,14.07
2017-07-15T04:25:21.158Z,13.07
2017-07-15T04:27:49.251Z,14.17
2017-07-15T04:30:17.337Z,15.90
2017-07-15T04:32:45.441Z,14.27
2017-07-15T04:35:13.540Z,15.00
2017-07-15T04:37:41.633Z,15.23
2017-07-15T04:40:09.727Z,12.37
2017-07-15T04:42:37.815Z,16.97
2017-07-15T04:45:06.004Z,12.60
2017-07-15T04:47:34.120Z,14.90
2017-07-15T04:50:02.208Z,14.17
2017-07-15T04:52:30.305Z,13.03
2017-07-15T04:54:58.402Z,15.97
2017-07-15T04:57:26.484Z,14.20
2017-07-15T04:59:54.578Z,14.47
2017-07-15T05:02:22.657Z,13.13
2017-07-15T05:04:50.748Z,16.60
2017-07-15T05:07:19.098Z,16.20
2017-07-15T05:09:47.205Z,13.70
2017-07-15T05:12:15.320Z,15.97
2017-07-15T05:14:43.509Z,16.57
2017-07-15T05:17:11.596Z,16.00
2017-07-15T05:19:39.852Z,14.33
2017-07-15T05:22:08.141Z,14.80
2017-07-15T05:24:36.242Z,15.53
2017-07-15T05:27:04.344Z,14.97
2017-07-15T05:29:32.547Z,12.53
2017-07-15T05:32:00.704Z,14.10
2017-07-15T05:34:28.909Z,12.77
2017-07-15T05:36:57.163Z,11.97
2017-07-15T05:39:25.254Z,14.37
2017-07-15T05:41:53.352Z,11.77
2017-07-15T05:44:21.452Z,12.20
2017-07-15T05:46:49.536Z,11.60
2017-07-15T05:49:17.645Z,11.87
2017-07-15T05:51:45.750Z,12.47
2017-07-15T05:54:13.844Z,9.97
2017-07-15T05:56:41.927Z,10.40
2017-07-15T05:59:10.028Z,10.43
2017-07-15T06:01:38.104Z,8.50
2017-07-15T06:04:06.289Z,9.40
2017-07-15T06:06:34.372Z,10.57
2017-07-15T06:09:02.465Z,9.40
2017-07-15T06:11:30.533Z,8.70
2017-07-15T06:13:58.627Z,9.27
2017-07-15T06:16:26.705Z,8.13
2017-07-15T06:18:54.780Z,7.70
2017-07-15T06:21:22.865Z,8.20
2017-07-15T06:23:50.939Z,9.10
2017-07-15T06:26:19.019Z,8.40
2017-07-15T06:28:47.116Z,9.37
2017-07-15T06:31:15.208Z,7.93
2017-07-15T06:33:43.331Z,8.07
2017-07-15T06:36:11.421Z,6.30
2017-07-15T06:38:39.712Z,5.97
2017-07-15T06:41:07.809Z,6.23
2017-07-15T06:43:35.888Z,4.70
2017-07-15T06:46:03.959Z,5.23
2017-07-15T06:48:32.045Z,5.67
2017-07-15T06:51:00.123Z,6.73
2017-07-15T06:53:28.204Z,5.77
2017-07-15T06:55:56.289Z,5.37
2017-07-15T06:58:24.384Z,5.70
2017-07-15T07:00:52.474Z,5.60
2017-07-15T07:03:20.552Z,6.07
2017-07-15T07:05:48.641Z,5.83
2017-07-15T07:08:16.722Z,5.10
2017-07-15T07:10:44.812Z,4.73
2017-07-15T07:13:12.892Z,4.50
2017-07-15T07:15:40.975Z,4.63
2017-07-15T07:18:09.064Z,4.50
2017-07-15T07:20:37.147Z,4.10
2017-07-15T07:23:05.403Z,4.83
2017-07-15T07:25:33.491Z,4.17
2017-07-15T07:28:01.745Z,3.97
2017-07-15T07:30:29.846Z,4.73
2017-07-15T07:32:57.932Z,4.33
2017-07-15T07:35:26.037Z,5.43
2017-07-15T07:37:54.120Z,4.47
2017-07-15T07:40:22.218Z,4.23
2017-07-15T07:42:50.294Z,4.80
2017-07-15T07:45:18.363Z,3.57
2017-07-15T07:47:47.273Z,3.97
2017-07-15T07:50:15.348Z,4.20
2017-07-15T07:52:43.448Z,3.83
2017-07-15T07:55:11.592Z,3.47
2017-07-15T07:57:39.676Z,3.40
2017-07-15T08:00:07.761Z,2.90
2017-07-15T08:02:35.851Z,2.40
2017-07-15T08:05:03.943Z,3.20
2017-07-15T08:07:32.033Z,3.20
2017-07-15T08:10:00.113Z,3.60
2017-07-15T08:12:28.183Z,3.43
2017-07-15T08:14:56.269Z,4.70
2017-07-15T08:17:24.353Z,3.77
2017-07-15T08:19:52.445Z,4.20
2017-07-15T08:22:20.531Z,4.77
2017-07-15T08:24:48.621Z,3.60
2017-07-15T08:27:16.703Z,2.40
2017-07-15T08:29:44.782Z,2.70
2017-07-15T08:32:12.857Z,2.40
2017-07-15T08:34:40.961Z,3.00
2017-07-15T08:37:09.060Z,3.00
2017-07-15T08:39:37.157Z,2.90
2017-07-15T08:42:05.250Z,3.30
2017-07-15T08:44:33.328Z,3.30
2017-07-15T08:47:01.419Z,2.70
2017-07-15T08:49:29.500Z,2.90
2017-07-15T08:51:57.587Z,3.27
2017-07-15T08:54:25.655Z,3.30
2017-07-15T08:56:53.742Z,3.83
2017-07-15T08:59:21.824Z,3.40
2017-07-15T09:01:49.918Z,3.80
2017-07-15T09:04:18.009Z,4.33
2017-07-15T09:06:46.096Z,4.67
2017-07-15T09:09:14.176Z,4.97
2017-07-15T09:11:42.276Z,4.70
2017-07-15T09:14:10.449Z,4.20
2017-07-15T09:16:38.525Z,4.20
2017-07-15T09:19:06.667Z,3.50
2017-07-15T09:21:34.747Z,3.20
2017-07-15T09:24:02.837Z,3.50
2017-07-15T09:26:30.925Z,3.30
2017-07-15T09:28:59.019Z,3.43
2017-07-15T09:31:27.100Z,3.83
2017-07-15T09:33:55.189Z,3.67
2017-07-15T09:36:23.272Z,3.43
2017-07-15T09:38:51.356Z,3.33
2017-07-15T09:41:19.501Z,3.00
2017-07-15T09:43:47.761Z,3.40
2017-07-15T09:46:15.890Z,3.00
2017-07-15T09:48:44.194Z,4.10
2017-07-15T09:51:12.280Z,3.07
2017-07-15T09:53:41.256Z,3.47
2017-07-15T09:56:09.344Z,3.40
2017-07-15T09:58:37.439Z,3.13
2017-07-15T10:01:05.536Z,3.17
2017-07-15T10:03:33.615Z,3.27
2017-07-15T10:06:01.686Z,3.30
2017-07-15T10:08:29.777Z,2.50
2017-07-15T10:10:57.856Z,2.90
2017-07-15T10:13:25.985Z,3.10
2017-07-15T10:15:54.060Z,2.70
2017-07-15T10:18:22.143Z,2.97
2017-07-15T10:20:50.229Z,2.43
2017-07-15T10:23:18.324Z,2.53
2017-07-15T10:25:46.410Z,2.60
2017-07-15T10:28:14.490Z,1.93
2017-07-15T10:30:42.565Z,2.43
2017-07-15T10:33:10.644Z,2.40
2017-07-15T10:35:38.728Z,2.57
2017-07-15T10:38:06.804Z,2.50
2017-07-15T10:40:34.898Z,2.70
2017-07-15T10:43:02.983Z,2.40
2017-07-15T10:45:31.060Z,3.90
2017-07-15T10:47:59.214Z,2.53
2017-07-15T10:50:27.355Z,1.70
2017-07-15T10:52:55.488Z,1.70
2017-07-15T10:55:23.568Z,1.90
2017-07-15T10:57:51.655Z,2.00
2017-07-15T11:00:19.769Z,2.10
2017-07-15T11:02:47.869Z,2.33
2017-07-15T11:05:16.113Z,2.37
2017-07-15T11:07:44.192Z,2.20
2017-07-15T11:10:12.284Z,2.50
2017-07-15T11:12:40.520Z,2.20
2017-07-15T11:15:08.610Z,1.87
2017-07-15T11:17:36.685Z,1.90
2017-07-15T11:20:04.776Z,1.90
2017-07-15T11:22:32.851Z,1.70
2017-07-15T11:25:00.945Z,2.20
2017-07-15T11:27:29.037Z,2.20
2017-07-15T11:29:57.113Z,1.90
2017-07-15T11:32:25.196Z,2.27
2017-07-15T11:34:53.295Z,2.50
2017-07-15T11:37:21.380Z,2.37
2017-07-15T11:39:49.457Z,2.40
2017-07-15T11:42:17.538Z,2.57
2017-07-15T11:44:45.628Z,2.70
2017-07-15T11:47:13.713Z,2.20
2017-07-15T11:49:41.799Z,2.10
2017-07-15T11:52:09.881Z,2.20
2017-07-15T11:54:37.955Z,2.03
2017-07-15T11:57:06.039Z,1.90
2017-07-15T11:59:34.115Z,2.00
2017-07-15T12:02:02.221Z,2.13
2017-07-15T12:04:30.296Z,2.10
2017-07-15T12:06:58.377Z,1.87
2017-07-15T12:09:26.477Z,2.00
2017-07-15T12:11:54.553Z,1.80
2017-07-15T12:14:22.693Z,2.43
2017-07-15T12:16:50.951Z,2.33
2017-07-15T12:19:19.034Z,2.03
2017-07-15T12:21:47.105Z,2.70
2017-07-15T12:24:15.195Z,3.73
2017-07-15T12:26:43.273Z,4.60
2017-07-15T12:29:11.356Z,3.43
2017-07-15T12:31:39.444Z,1.93
2017-07-15T12:34:07.528Z,2.03
2017-07-15T12:36:35.613Z,3.30
2017-07-15T12:39:03.716Z,3.57
2017-07-15T12:41:31.820Z,2.50
2017-07-15T12:43:59.905Z,2.00
2017-07-15T12:46:27.992Z,1.90
2017-07-15T12:48:56.071Z,2.03
2017-07-15T12:51:24.161Z,2.30
2017-07-15T12:53:52.243Z,2.10
2017-07-15T12:56:20.329Z,2.80
2017-07-15T12:58:48.553Z,2.10
2017-07-15T13:01:16.650Z,2.10
2017-07-15T13:03:44.728Z,2.00
2017-07-15T13:06:12.806Z,1.90
2017-07-15T13:08:40.906Z,1.90
2017-07-15T13:11:09.008Z,1.90
2017-07-15T13:13:37.078Z,2.07
2017-07-15T13:16:05.158Z,1.93
2017-07-15T13:18:33.239Z,2.10
2017-07-15T13:21:01.316Z,2.00
2017-07-15T13:23:29.400Z,2.60
2017-07-15T13:25:57.486Z,2.23
2017-07-15T13:28:25.561Z,2.30
2017-07-15T13:30:53.657Z,2.30
2017-07-15T13:33:21.748Z,2.10
2017-07-15T13:35:49.825Z,2.20
2017-07-15T13:38:18.116Z,2.13
2017-07-15T13:40:46.199Z,2.27
2017-07-15T13:43:14.291Z,2.23
2017-07-15T13:45:42.397Z,2.40
2017-07-15T13:48:10.482Z,2.30
2017-07-15T13:50:38.564Z,2.00
2017-07-15T13:53:06.650Z,2.17
2017-07-15T13:55:34.731Z,2.13
2017-07-15T13:58:02.813Z,1.93
2017-07-15T14:00:31.709Z,2.40
2017-07-15T14:02:59.784Z,2.40
2017-07-15T14:05:27.851Z,2.20
2017-07-15T14:07:55.947Z,1.87
2017-07-15T14:10:24.036Z,2.33
2017-07-15T14:12:52.125Z,1.87
2017-07-15T14:15:20.209Z,1.67
2017-07-15T14:17:48.300Z,2.00
2017-07-15T14:20:16.392Z,1.60
2017-07-15T14:22:44.487Z,1.87
2017-07-15T14:25:12.564Z,2.03
2017-07-15T14:27:40.659Z,1.97
2017-07-15T14:30:08.750Z,2.27
2017-07-15T14:32:36.827Z,1.73
2017-07-15T14:35:04.915Z,2.17
2017-07-15T14:37:33.001Z,2.60
2017-07-15T14:40:01.088Z,2.97
2017-07-15T14:42:29.168Z,2.60
2017-07-15T14:44:57.260Z,2.67
2017-07-15T14:47:25.340Z,2.47
2017-07-15T14:49:53.441Z,2.40
2017-07-15T14:52:21.510Z,2.47
2017-07-15T14:54:49.600Z,2.67
2017-07-15T14:57:17.681Z,2.37
2017-07-15T14:59:45.755Z,2.53
2017-07-15T15:02:13.844Z,2.30
2017-07-15T15:04:41.923Z,2.70
2017-07-15T15:07:10.417Z,2.87
2017-07-15T15:09:38.501Z,2.13
2017-07-15T15:12:06.593Z,2.10
2017-07-15T15:14:34.660Z,2.00
2017-07-15T15:17:02.750Z,2.20
2017-07-15T15:19:30.846Z,3.03
2017-07-15T15:21:58.936Z,2.43
2017-07-15T15:24:27.027Z,2.73
2017-07-15T15:26:55.117Z,2.30
2017-07-15T15:29:23.200Z,2.33
2017-07-15T15:31:51.277Z,1.83
2017-07-15T15:34:19.361Z,2.33
2017-07-15T15:36:47.464Z,2.97
2017-07-15T15:39:15.539Z,2.50
2017-07-15T15:41:43.630Z,2.57
2017-07-15T15:44:11.729Z,2.70
2017-07-15T15:46:39.832Z,3.17
2017-07-15T15:49:07.912Z,3.00
2017-07-15T15:51:35.991Z,2.70
2017-07-15T15:54:04.077Z,2.77
2017-07-15T15:56:32.165Z,3.40
2017-07-15T15:59:00.259Z,3.30
2017-07-15T16:01:28.342Z,2.43
2017-07-15T16:03:56.416Z,2.80
2017-07-15T16:06:24.508Z,3.17
2017-07-15T16:08:52.596Z,2.40
2017-07-15T16:11:20.683Z,2.50
2017-07-15T16:13:48.757Z,2.60
2017-07-15T16:16:16.845Z,2.60
2017-07-15T16:18:44.941Z,2.43
2017-07-15T16:21:13.079Z,3.03
2017-07-15T16:23:41.159Z,2.73
2017-07-15T16:26:09.250Z,3.00
2017-07-15T16:28:37.326Z,3.40
2017-07-15T16:31:05.424Z,2.67
2017-07-15T16:33:33.511Z,3.57
2017-07-15T16:36:01.597Z,2.83
2017-07-15T16:38:29.694Z,3.17
2017-07-15T16:40:57.760Z,3.03
2017-07-15T16:43:25.844Z,2.43
2017-07-15T16:45:53.930Z,3.00
2017-07-15T16:48:22.025Z,2.77
2017-07-15T16:50:50.115Z,2.70
2017-07-15T16:53:18.197Z,2.67
2017-07-15T16:55:46.278Z,3.00
2017-07-15T16:58:14.358Z,2.60
2017-07-15T17:00:42.455Z,2.60
2017-07-15T17:03:10.565Z,2.90
2017-07-15T17:05:38.649Z,2.60
2017-07-15T17:08:06.733Z,2.23
2017-07-15T17:10:34.816Z,2.80
2017-07-15T17:13:02.897Z,2.40
2017-07-15T17:15:30.997Z,3.00
2017-07-15T17:17:59.067Z,3.00
2017-07-15T17:20:27.160Z,2.77
2017-07-15T17:22:55.244Z,3.03
2017-07-15T17:25:23.333Z,2.97
2017-07-15T17:27:51.415Z,2.97
2017-07-15T17:30:19.510Z,2.63
2017-07-15T17:32:47.581Z,2.47
2017-07-15T17:35:15.659Z,2.87
2017-07-15T17:37:43.745Z,2.40
2017-07-15T17:40:11.825Z,2.77
2017-07-15T17:42:39.911Z,2.50
2017-07-15T17:45:07.987Z,2.53
2017-07-15T17:47:36.072Z,2.97
2017-07-15T17:50:04.165Z,3.13
2017-07-15T17:52:32.255Z,2.47
2017-07-15T17:55:00.379Z,2.80
2017-07-15T17:57:28.471Z,3.07
2017-07-15T17:59:56.776Z,3.07
2017-07-15T18:02:24.926Z,2.73
2017-07-15T18:04:53.021Z,2.90
2017-07-15T18:07:21.117Z,3.07
2017-07-15T18:09:49.208Z,3.03
2017-07-15T18:12:17.295Z,2.77
2017-07-15T18:14:45.400Z,2.60
2017-07-15T18:17:13.477Z,2.87
2017-07-15T18:19:41.569Z,2.73
2017-07-15T18:22:09.655Z,3.00
2017-07-15T18:24:37.888Z,2.93
2017-07-15T18:27:05.972Z,3.10
2017-07-15T18:29:34.071Z,2.93
2017-07-15T18:32:02.157Z,3.13
2017-07-15T18:34:30.235Z,3.27
2017-07-15T18:36:58.319Z,3.30
2017-07-15T18:39:26.416Z,2.93
2017-07-15T18:41:54.496Z,3.50
2017-07-15T18:44:22.577Z,3.40
2017-07-15T18:46:50.660Z,3.20
2017-07-15T18:49:18.731Z,3.23
2017-07-15T18:51:46.826Z,3.33
2017-07-15T18:54:14.904Z,3.30
2017-07-15T18:56:43.013Z,3.10
2017-07-15T18:59:11.088Z,3.10
2017-07-15T19:01:39.164Z,3.57
2017-07-15T19:04:07.252Z,3.40
2017-07-15T19:06:35.328Z,3.30
2017-07-15T19:09:03.416Z,3.40
2017-07-15T19:11:31.493Z,3.80
2017-07-15T19:13:59.585Z,3.50
2017-07-15T19:16:27.680Z,3.90
2017-07-15T19:18:55.768Z,3.53
2017-07-15T19:21:23.844Z,3.37
2017-07-15T19:23:51.919Z,3.73
2017-07-15T19:26:20.010Z,3.60
2017-07-15T19:28:48.094Z,3.37
2017-07-15T19:31:16.171Z,4.00
2017-07-15T19:33:44.251Z,4.00
2017-07-15T19:36:12.343Z,3.63
2017-07-15T19:38:40.425Z,3.20
2017-07-15T19:41:08.514Z,3.97
2017-07-15T19:43:36.595Z,3.03
2017-07-15T19:46:04.685Z,2.93
2017-07-15T19:48:32.765Z,4.50
2017-07-15T19:51:00.840Z,5.87
2017-07-15T19:53:28.972Z,4.90
2017-07-15T19:55:56.992Z,4.00
2017-07-15T19:58:25.081Z,3.47
2017-07-15T20:00:53.179Z,3.70
2017-07-15T20:03:21.258Z,4.40
2017-07-15T20:05:49.337Z,4.30
2017-07-15T20:08:17.422Z,3.70
2017-07-15T20:10:45.496Z,3.13
2017-07-15T20:13:13.580Z,3.40
2017-07-15T20:15:41.655Z,3.40
2017-07-15T20:18:09.750Z,2.93
2017-07-15T20:20:37.825Z,3.33
2017-07-15T20:23:05.902Z,3.53
2017-07-15T20:25:33.996Z,4.23
2017-07-15T20:28:02.077Z,4.43
2017-07-15T20:30:30.163Z,3.80
2017-07-15T20:32:58.238Z,4.27
2017-07-15T20:35:26.437Z,3.40
2017-07-15T20:37:54.515Z,3.43
2017-07-15T20:40:22.752Z,3.70
2017-07-15T20:42:50.828Z,3.37
2017-07-15T20:45:18.911Z,3.40
2017-07-15T20:47:47.002Z,3.60
2017-07-15T20:50:15.076Z,3.13
2017-07-15T20:52:48.937Z,3.73
2017-07-15T20:55:17.017Z,3.83
2017-07-15T20:57:45.127Z,2.87
2017-07-15T21:00:13.201Z,4.10
2017-07-15T21:02:41.278Z,3.73
2017-07-15T21:05:09.365Z,3.53
2017-07-15T21:07:37.445Z,6.00
2017-07-15T21:10:05.524Z,6.50
2017-07-15T21:12:33.811Z,5.37
2017-07-15T21:15:01.883Z,4.53
2017-07-15T21:17:29.972Z,4.30
2017-07-15T21:19:58.052Z,3.80
2017-07-15T21:22:26.132Z,3.43
2017-07-15T21:24:54.222Z,3.97
2017-07-15T21:27:22.300Z,3.90
2017-07-15T21:29:50.451Z,4.60
2017-07-15T21:32:18.514Z,4.57
2017-07-15T21:34:46.612Z,4.30
2017-07-15T21:37:14.691Z,5.53
2017-07-15T21:39:42.771Z,4.83
2017-07-15T21:42:10.857Z,4.60
2017-07-15T21:44:38.943Z,4.80
2017-07-15T21:47:07.039Z,4.30
2017-07-15T21:49:35.138Z,4.20
2017-07-15T21:52:03.197Z,4.07
2017-07-15T21:54:31.293Z,4.10
2017-07-15T21:56:59.379Z,4.67
2017-07-15T21:59:27.452Z,3.70
2017-07-15T22:01:55.540Z,5.17
2017-07-15T22:04:23.605Z,4.63
2017-07-15T22:06:51.693Z,11.50
2017-07-15T22:09:19.776Z,5.43
2017-07-15T22:11:47.900Z,5.00
2017-07-15T22:14:15.975Z,5.33
2017-07-15T22:16:44.068Z,5.40
2017-07-15T22:19:12.183Z,5.27
2017-07-15T22:21:40.388Z,5.33
2017-07-15T22:24:08.654Z,5.23
2017-07-15T22:26:36.735Z,5.03
2017-07-15T22:29:04.824Z,5.13
2017-07-15T22:31:32.906Z,4.57
2017-07-15T22:34:00.984Z,5.90
2017-07-15T22:36:29.212Z,5.60
2017-07-15T22:38:57.309Z,5.60
2017-07-15T22:41:25.380Z,5.87
2017-07-15T22:43:53.829Z,5.57
2017-07-15T22:46:21.917Z,5.93
2017-07-15T22:48:50.040Z,6.27
2017-07-15T22:51:18.126Z,5.90
2017-07-15T22:53:46.206Z,6.70
2017-07-15T22:56:14.296Z,6.73
2017-07-15T22:58:43.144Z,5.40
2017-07-15T23:01:11.340Z,5.80
2017-07-15T23:03:39.437Z,5.20
2017-07-15T23:06:07.685Z,5.00
2017-07-15T23:08:35.776Z,4.60
2017-07-15T23:11:03.849Z,5.83
2017-07-15T23:13:31.930Z,5.40
2017-07-15T23:16:00.016Z,5.17
2017-07-15T23:18:28.103Z,7.50
2017-07-15T23:20:56.192Z,5.90
2017-07-15T23:23:24.276Z,5.60
2017-07-15T23:25:52.458Z,5.30
2017-07-15T23:28:20.604Z,5.93
2017-07-15T23:30:48.685Z,5.40
2017-07-15T23:33:16.776Z,6.20
2017-07-15T23:35:45.636Z,6.07
2017-07-15T23:38:13.824Z,5.70
2017-07-15T23:40:41.922Z,4.20
2017-07-15T23:43:10.019Z,5.20
2017-07-15T23:45:38.108Z,7.73
2017-07-15T23:48:06.200Z,12.90
2017-07-15T23:50:34.292Z,13.47
2017-07-15T23:53:02.372Z,20.57
2017-07-15T23:55:30.460Z,9.20
2017-07-15T23:57:58.556Z,7.87
